PWSweather.com
Personal Weather Stations
Station Observations
IHTIMAN1
Neighbourhood 1, IhtimanBG 2050

Neighbourhood 1IhtimanBG 2050

Lat: 42.436852, Lon: 23.817921

Elevation: 2066

Station Type: Oregon Scientific WMR968

http://ihtiman-meteo.com

High Low Average
Temperature 53.1°F11.7°F 30.7°F-0.7°F 41.5°F5.3°F
Dew Point 27.5°F-2.5°F 21.9°F-5.6°F 24.7°F-4.1°F
Winds 8.2 mph NW13.2 mph NW Calm Calm 3.8 mph 6.1 mph
Wind Gusts 13.2 mph21.2 mph -- 5.5 mph8.9 mph
Humidity 77% 37% 53%
Pressure 30.15 in1021.00 in 29.91 in1012.90 in -
Precipitation 0.00 in0.00 in - -
Hour Temp Dew Point Humidity Winds Wind Gusts Pressure Precip Precip Rate Daily Precip Total
12:00 AM 33.1°F0.6°C 23.3°F-4.8°C 67% 2.9 mph NNW4.7 kmh NNW 4.0 mph6.4 kmh 30.15 in1021.0 mb - 0.00 in0.0 mm 0.00 in0.0 mm
12:10 AM 32.9°F0.5°C 23.1°F-4.9°C 67% 3.9 mph NNW6.3 kmh NNW 5.4 mph8.7 kmh 30.15 in1021.0 mb - 0.00 in0.0 mm 0.00 in0.0 mm
12:20 AM 32.7°F0.4°C 23.0°F-5.0°C 67% 3.2 mph N5.1 kmh N 5.4 mph8.7 kmh 30.15 in1021.0 mb - 0.00 in0.0 mm 0.00 in0.0 mm
12:30 AM 32.7°F0.4°C 23.0°F-5.0°C 67% 3.5 mph N5.6 kmh N 5.4 mph8.7 kmh 30.15 in1021.0 mb - 0.00 in0.0 mm 0.00 in0.0 mm
12:40 AM 32.5°F0.3°C 22.8°F-5.1°C 67% 3.2 mph NNW5.1 kmh NNW 4.0 mph6.4 kmh 30.15 in1021.0 mb - 0.00 in0.0 mm 0.00 in0.0 mm
12:50 AM 32.2°F0.1°C 22.4°F-5.3°C 67% 2.7 mph NW4.3 kmh NW 3.6 mph5.8 kmh 30.15 in1021.0 mb - 0.00 in0.0 mm 0.00 in0.0 mm
01:00 AM 32.1°F0.1°C 22.7°F-5.2°C 68% 2.7 mph N4.3 kmh N 4.9 mph7.9 kmh 30.15 in1021.0 mb - 0.00 in0.0 mm 0.00 in0.0 mm
01:10 AM 32.0°F0.0°C 22.6°F-5.2°C 68% 3.6 mph NE5.8 kmh NE 4.0 mph6.4 kmh 30.15 in1021.0 mb - 0.00 in0.0 mm 0.00 in0.0 mm
01:20 AM 31.8°F-0.1°C 22.5°F-5.3°C 68% 3.8 mph NNE6.1 kmh NNE 5.4 mph8.7 kmh 30.15 in1021.0 mb - 0.00 in0.0 mm 0.00 in0.0 mm
01:30 AM 31.8°F-0.1°C 22.5°F-5.3°C 68% 3.1 mph NNW5.0 kmh NNW 3.6 mph5.8 kmh 30.15 in1021.0 mb - 0.00 in0.0 mm 0.00 in0.0 mm
01:40 AM 31.6°F-0.2°C 22.6°F-5.2°C 69% 3.9 mph NNW6.3 kmh NNW 5.4 mph8.7 kmh 30.12 in1020.0 mb - 0.00 in0.0 mm 0.00 in0.0 mm
01:50 AM 31.6°F-0.2°C 22.6°F-5.2°C 69% 3.7 mph NW6.0 kmh NW 5.8 mph9.3 kmh 30.12 in1020.0 mb - 0.00 in0.0 mm 0.00 in0.0 mm
02:00 AM 31.6°F-0.2°C 22.6°F-5.2°C 69% 2.9 mph NW4.7 kmh NW 4.0 mph6.4 kmh 30.12 in1020.0 mb - 0.00 in0.0 mm 0.00 in0.0 mm
02:10 AM 31.5°F-0.3°C 22.5°F-5.3°C 69% 2.4 mph NW3.9 kmh NW 3.1 mph5.0 kmh 30.12 in1020.0 mb - 0.00 in0.0 mm 0.00 in0.0 mm
02:20 AM 31.5°F-0.3°C 22.5°F-5.3°C 69% 2.5 mph NW4.0 kmh NW 3.1 mph5.0 kmh 30.12 in1020.0 mb - 0.00 in0.0 mm 0.00 in0.0 mm
02:30 AM 31.3°F-0.4°C 22.3°F-5.4°C 69% 1.3 mph NW2.1 kmh NW 2.7 mph4.3 kmh 30.12 in1020.0 mb - 0.00 in0.0 mm 0.00 in0.0 mm
02:40 AM 31.1°F-0.5°C 22.1°F-5.5°C 69% Calm Calm -- 30.12 in1020.0 mb - 0.00 in0.0 mm 0.00 in0.0 mm
02:50 AM 30.9°F-0.6°C 21.9°F-5.6°C 69% Calm Calm -- 30.12 in1020.0 mb - 0.00 in0.0 mm 0.00 in0.0 mm
03:00 AM 30.9°F-0.6°C 22.3°F-5.4°C 70% Calm Calm -- 30.12 in1020.0 mb - 0.00 in0.0 mm 0.00 in0.0 mm
03:10 AM 30.9°F-0.6°C 22.3°F-5.4°C 70% Calm Calm 3.1 mph5.0 kmh 30.12 in1020.0 mb - 0.00 in0.0 mm 0.00 in0.0 mm
03:20 AM 30.9°F-0.6°C 22.3°F-5.4°C 70% Calm Calm -- 30.12 in1020.0 mb - 0.00 in0.0 mm 0.00 in0.0 mm
03:30 AM 30.9°F-0.6°C 22.3°F-5.4°C 70% Calm Calm 2.7 mph4.3 kmh 30.12 in1020.0 mb - 0.00 in0.0 mm 0.00 in0.0 mm
03:40 AM 30.9°F-0.6°C 22.3°F-5.4°C 70% Calm Calm -- 30.12 in1020.0 mb - 0.00 in0.0 mm 0.00 in0.0 mm
03:50 AM 30.9°F-0.6°C 22.6°F-5.2°C 71% Calm Calm -- 30.12 in1020.0 mb - 0.00 in0.0 mm 0.00 in0.0 mm
04:00 AM 30.9°F-0.6°C 22.6°F-5.2°C 71% Calm Calm -- 30.12 in1020.0 mb - 0.00 in0.0 mm 0.00 in0.0 mm
04:10 AM 30.9°F-0.6°C 22.6°F-5.2°C 71% Calm Calm -- 30.12 in1020.0 mb - 0.00 in0.0 mm 0.00 in0.0 mm
04:20 AM 31.1°F-0.5°C 22.8°F-5.1°C 71% Calm Calm -- 30.12 in1020.0 mb - 0.00 in0.0 mm 0.00 in0.0 mm
04:30 AM 31.5°F-0.3°C 23.5°F-4.7°C 72% Calm Calm 2.7 mph4.3 kmh 30.12 in1020.0 mb - 0.00 in0.0 mm 0.00 in0.0 mm
04:40 AM 31.6°F-0.2°C 23.6°F-4.7°C 72% 3.1 mph NNW5.0 kmh NNW 4.5 mph7.2 kmh 30.12 in1020.0 mb - 0.00 in0.0 mm 0.00 in0.0 mm
04:50 AM 31.6°F-0.2°C 23.6°F-4.7°C 72% 1.0 mph N1.6 kmh N 3.6 mph5.8 kmh 30.12 in1020.0 mb - 0.00 in0.0 mm 0.00 in0.0 mm
05:00 AM 31.6°F-0.2°C 23.6°F-4.7°C 72% Calm Calm -- 30.12 in1020.0 mb - 0.00 in0.0 mm 0.00 in0.0 mm
05:10 AM 31.6°F-0.2°C 23.6°F-4.7°C 72% Calm Calm 2.2 mph3.5 kmh 30.12 in1020.0 mb - 0.00 in0.0 mm 0.00 in0.0 mm
05:20 AM 31.5°F-0.3°C 23.5°F-4.7°C 72% Calm Calm -- 30.12 in1020.0 mb - 0.00 in0.0 mm 0.00 in0.0 mm
05:30 AM 31.1°F-0.5°C 23.1°F-4.9°C 72% Calm Calm -- 30.12 in1020.0 mb - 0.00 in0.0 mm 0.00 in0.0 mm
05:40 AM 30.9°F-0.6°C 23.0°F-5.0°C 72% Calm Calm -- 30.09 in1019.0 mb - 0.00 in0.0 mm 0.00 in0.0 mm
05:50 AM 30.9°F-0.6°C 23.0°F-5.0°C 72% 2.2 mph 3.5 kmh 4.0 mph6.4 kmh 30.12 in1020.0 mb - 0.00 in0.0 mm 0.00 in0.0 mm
06:00 AM 30.9°F-0.6°C 23.0°F-5.0°C 72% 3.0 mph N4.8 kmh N 4.0 mph6.4 kmh 30.12 in1020.0 mb - 0.00 in0.0 mm 0.00 in0.0 mm
06:10 AM 31.1°F-0.5°C 23.5°F-4.7°C 73% 1.8 mph N2.9 kmh N 4.0 mph6.4 kmh 30.12 in1020.0 mb - 0.00 in0.0 mm 0.00 in0.0 mm
06:20 AM 31.1°F-0.5°C 23.5°F-4.7°C 73% 2.2 mph NNW3.5 kmh NNW -- 30.12 in1020.0 mb - 0.00 in0.0 mm 0.00 in0.0 mm
06:30 AM 30.9°F-0.6°C 23.3°F-4.8°C 73% 2.2 mph W3.5 kmh W 2.7 mph4.3 kmh 30.12 in1020.0 mb - 0.00 in0.0 mm 0.00 in0.0 mm
06:40 AM 30.9°F-0.6°C 23.3°F-4.8°C 73% 1.6 mph W2.6 kmh W 2.7 mph4.3 kmh 30.12 in1020.0 mb - 0.00 in0.0 mm 0.00 in0.0 mm
06:50 AM 30.7°F-0.7°C 23.1°F-4.9°C 73% Calm Calm -- 30.12 in1020.0 mb - 0.00 in0.0 mm 0.00 in0.0 mm
07:00 AM 30.7°F-0.7°C 23.1°F-4.9°C 73% Calm Calm 3.1 mph5.0 kmh 30.12 in1020.0 mb - 0.00 in0.0 mm 0.00 in0.0 mm
07:10 AM 31.1°F-0.5°C 23.8°F-4.6°C 74% Calm Calm -- 30.09 in1019.0 mb - 0.00 in0.0 mm 0.00 in0.0 mm
07:20 AM 31.5°F-0.3°C 24.1°F-4.4°C 74% 2.2 mph W3.5 kmh W 3.1 mph5.0 kmh 30.12 in1020.0 mb - 0.00 in0.0 mm 0.00 in0.0 mm
07:30 AM 32.2°F0.1°C 25.8°F-3.4°C 77% 2.7 mph NW4.3 kmh NW 4.9 mph7.9 kmh 30.12 in1020.0 mb - 0.00 in0.0 mm 0.00 in0.0 mm
07:40 AM 33.4°F0.8°C 27.0°F-2.8°C 77% 5.7 mph NNW9.2 kmh NNW 6.3 mph10.1 kmh 30.12 in1020.0 mb - 0.00 in0.0 mm 0.00 in0.0 mm
07:50 AM 34.3°F1.3°C 25.9°F-3.4°C 71% 4.1 mph NE6.6 kmh NE 3.1 mph5.0 kmh 30.12 in1020.0 mb - 0.00 in0.0 mm 0.00 in0.0 mm
08:00 AM 35.1°F1.7°C 25.6°F-3.6°C 68% 5.1 mph NNW8.2 kmh NNW 7.2 mph11.6 kmh 30.12 in1020.0 mb - 0.00 in0.0 mm 0.00 in0.0 mm
08:10 AM 35.4°F1.9°C 25.2°F-3.8°C 66% 4.3 mph N6.9 kmh N 6.3 mph10.1 kmh 30.12 in1020.0 mb - 0.00 in0.0 mm 0.00 in0.0 mm
08:20 AM 36.3°F2.4°C 25.7°F-3.5°C 65% 3.0 mph NNW4.8 kmh NNW 5.8 mph9.3 kmh 30.12 in1020.0 mb - 0.00 in0.0 mm 0.00 in0.0 mm
08:30 AM 37.0°F2.8°C 25.6°F-3.6°C 63% 4.2 mph NNW6.8 kmh NNW 6.3 mph10.1 kmh 30.12 in1020.0 mb - 0.00 in0.0 mm 0.00 in0.0 mm
08:40 AM 38.6°F3.7°C 25.9°F-3.4°C 60% 4.3 mph NNW6.9 kmh NNW 5.4 mph8.7 kmh 30.12 in1020.0 mb - 0.00 in0.0 mm 0.00 in0.0 mm
08:50 AM 39.7°F4.3°C 25.7°F-3.5°C 57% 3.1 mph N5.0 kmh N 5.4 mph8.7 kmh 30.12 in1020.0 mb - 0.00 in0.0 mm 0.00 in0.0 mm
09:00 AM 40.7°F4.8°C 26.2°F-3.2°C 56% 4.6 mph NW7.4 kmh NW 8.0 mph12.9 kmh 30.12 in1020.0 mb - 0.00 in0.0 mm 0.00 in0.0 mm
09:10 AM 41.2°F5.1°C 25.8°F-3.4°C 54% 4.6 mph NNW7.4 kmh NNW 6.7 mph10.8 kmh 30.12 in1020.0 mb - 0.00 in0.0 mm 0.00 in0.0 mm
09:20 AM 42.4°F5.8°C 26.0°F-3.3°C 52% 4.1 mph NW6.6 kmh NW 7.6 mph12.2 kmh 30.09 in1019.0 mb - 0.00 in0.0 mm 0.00 in0.0 mm
09:30 AM 43.0°F6.1°C 25.6°F-3.6°C 50% 4.6 mph N7.4 kmh N 10.1 mph16.3 kmh 30.09 in1019.0 mb - 0.00 in0.0 mm 0.00 in0.0 mm
09:40 AM 43.7°F6.5°C 25.3°F-3.7°C 48% 7.2 mph NNW11.6 kmh NNW 8.3 mph13.4 kmh 30.09 in1019.0 mb - 0.00 in0.0 mm 0.00 in0.0 mm
09:50 AM 42.3°F5.7°C 24.0°F-4.4°C 48% 7.3 mph NNW11.7 kmh NNW 10.1 mph16.3 kmh 30.09 in1019.0 mb - 0.00 in0.0 mm 0.00 in0.0 mm
10:00 AM 42.9°F6.1°C 24.0°F-4.4°C 47% 4.5 mph NNE7.2 kmh NNE 5.4 mph8.7 kmh 30.09 in1019.0 mb - 0.00 in0.0 mm 0.00 in0.0 mm
10:10 AM 44.3°F6.8°C 24.8°F-4.0°C 46% 5.2 mph N8.4 kmh N 5.8 mph9.3 kmh 30.09 in1019.0 mb - 0.00 in0.0 mm 0.00 in0.0 mm
10:20 AM 44.5°F6.9°C 24.5°F-4.2°C 45% 8.2 mph NW13.2 kmh NW 12.3 mph19.8 kmh 30.09 in1019.0 mb - 0.00 in0.0 mm 0.00 in0.0 mm
10:30 AM 45.5°F7.5°C 25.4°F-3.7°C 45% 7.6 mph NNW12.2 kmh NNW 10.9 mph17.5 kmh 30.09 in1019.0 mb - 0.00 in0.0 mm 0.00 in0.0 mm
10:40 AM 45.1°F7.3°C 24.5°F-4.2°C 44% 3.9 mph N6.3 kmh N 5.8 mph9.3 kmh 30.09 in1019.0 mb - 0.00 in0.0 mm 0.00 in0.0 mm
10:50 AM 46.0°F7.8°C 25.3°F-3.7°C 44% 5.9 mph NNW9.5 kmh NNW 10.9 mph17.5 kmh 30.06 in1017.9 mb - 0.00 in0.0 mm 0.00 in0.0 mm
11:00 AM 46.2°F7.9°C 24.9°F-3.9°C 43% 6.9 mph NW11.1 kmh NW 6.3 mph10.1 kmh 30.06 in1017.9 mb - 0.00 in0.0 mm 0.00 in0.0 mm
11:10 AM 47.3°F8.5°C 25.3°F-3.7°C 42% 5.0 mph N8.0 kmh N 7.6 mph12.2 kmh 30.06 in1017.9 mb - 0.00 in0.0 mm 0.00 in0.0 mm
11:20 AM 45.5°F7.5°C 24.3°F-4.3°C 43% 5.8 mph N9.3 kmh N 8.7 mph14.0 kmh 30.06 in1017.9 mb - 0.00 in0.0 mm 0.00 in0.0 mm
11:30 AM 46.3°F7.9°C 25.5°F-3.6°C 44% 5.2 mph NW8.4 kmh NW 8.0 mph12.9 kmh 30.06 in1017.9 mb - 0.00 in0.0 mm 0.00 in0.0 mm
11:40 AM 48.0°F8.9°C 26.0°F-3.3°C 42% 5.5 mph NW8.9 kmh NW 8.3 mph13.4 kmh 30.06 in1017.9 mb - 0.00 in0.0 mm 0.00 in0.0 mm
11:50 AM 47.5°F8.6°C 25.5°F-3.6°C 42% 6.0 mph N9.7 kmh N 8.7 mph14.0 kmh 30.06 in1017.9 mb - 0.00 in0.0 mm 0.00 in0.0 mm
12:00 PM 48.1°F8.9°C 26.0°F-3.3°C 42% 6.7 mph NW10.8 kmh NW 6.3 mph10.1 kmh 30.06 in1017.9 mb - 0.00 in0.0 mm 0.00 in0.0 mm
12:10 PM 49.4°F9.7°C 26.1°F-3.3°C 40% 5.4 mph NW8.7 kmh NW 6.3 mph10.1 kmh 30.03 in1016.9 mb - 0.00 in0.0 mm 0.00 in0.0 mm
12:20 PM 48.0°F8.9°C 26.0°F-3.3°C 42% 5.5 mph NNW8.9 kmh NNW 8.0 mph12.9 kmh 30.03 in1016.9 mb - 0.00 in0.0 mm 0.00 in0.0 mm
12:30 PM 48.5°F9.2°C 25.2°F-3.8°C 40% 6.1 mph NW9.8 kmh NW 5.8 mph9.3 kmh 30.03 in1016.9 mb - 0.00 in0.0 mm 0.00 in0.0 mm
12:40 PM 47.6°F8.7°C 25.6°F-3.6°C 42% 5.8 mph N9.3 kmh N 5.8 mph9.3 kmh 30.03 in1016.9 mb - 0.00 in0.0 mm 0.00 in0.0 mm
12:50 PM 48.0°F8.9°C 26.0°F-3.3°C 42% 6.9 mph NW11.1 kmh NW 8.7 mph14.0 kmh 30.03 in1016.9 mb - 0.00 in0.0 mm 0.00 in0.0 mm
01:00 PM 50.2°F10.1°C 26.1°F-3.3°C 39% 5.9 mph NNW9.5 kmh NNW 10.1 mph16.3 kmh 30.02 in1016.6 mb - 0.00 in0.0 mm 0.00 in0.0 mm
01:10 PM 48.4°F9.1°C 24.5°F-4.2°C 39% 6.1 mph NNW9.8 kmh NNW 8.7 mph14.0 kmh 30.00 in1015.9 mb - 0.00 in0.0 mm 0.00 in0.0 mm
01:20 PM 48.1°F8.9°C 24.3°F-4.3°C 39% 4.2 mph NW6.8 kmh NW 7.6 mph12.2 kmh 30.00 in1015.9 mb - 0.00 in0.0 mm 0.00 in0.0 mm
01:30 PM 48.5°F9.2°C 25.3°F-3.7°C 40% 5.8 mph N9.3 kmh N 8.0 mph12.9 kmh 30.00 in1015.9 mb - 0.00 in0.0 mm 0.00 in0.0 mm
01:40 PM 49.8°F9.9°C 25.8°F-3.4°C 39% 6.1 mph N9.8 kmh N 8.7 mph14.0 kmh 30.00 in1015.9 mb - 0.00 in0.0 mm 0.00 in0.0 mm
01:50 PM 49.0°F9.4°C 25.1°F-3.8°C 39% 4.9 mph N7.9 kmh N 5.8 mph9.3 kmh 30.00 in1015.9 mb - 0.00 in0.0 mm 0.00 in0.0 mm
02:00 PM 50.2°F10.1°C 26.1°F-3.3°C 39% 7.8 mph N12.6 kmh N 13.2 mph21.2 kmh 30.00 in1015.9 mb - 0.00 in0.0 mm 0.00 in0.0 mm
02:10 PM 50.7°F10.4°C 26.6°F-3.0°C 39% 3.8 mph N6.1 kmh N 6.3 mph10.1 kmh 30.00 in1015.9 mb - 0.00 in0.0 mm 0.00 in0.0 mm
02:20 PM 50.2°F10.1°C 26.1°F-3.3°C 39% 7.6 mph NW12.2 kmh NW 10.5 mph16.9 kmh 29.97 in1014.9 mb - 0.00 in0.0 mm 0.00 in0.0 mm
02:30 PM 51.3°F10.7°C 26.5°F-3.1°C 38% 4.7 mph WNW7.6 kmh WNW 10.1 mph16.3 kmh 29.97 in1014.9 mb - 0.00 in0.0 mm 0.00 in0.0 mm
02:40 PM 52.3°F11.3°C 27.5°F-2.5°C 38% 7.7 mph WNW12.4 kmh WNW 8.3 mph13.4 kmh 29.97 in1014.9 mb - 0.00 in0.0 mm 0.00 in0.0 mm
02:50 PM 52.2°F11.2°C 27.3°F-2.6°C 38% 4.8 mph W7.7 kmh W 8.0 mph12.9 kmh 29.97 in1014.9 mb - 0.00 in0.0 mm 0.00 in0.0 mm
03:00 PM 52.2°F11.2°C 26.7°F-2.9°C 37% 3.0 mph NW4.8 kmh NW 6.3 mph10.1 kmh 29.97 in1014.9 mb - 0.00 in0.0 mm 0.00 in0.0 mm
03:10 PM 53.1°F11.7°C 27.4°F-2.6°C 37% 4.4 mph NNW7.1 kmh NNW 8.3 mph13.4 kmh 29.94 in1013.9 mb - 0.00 in0.0 mm 0.00 in0.0 mm
03:20 PM 53.1°F11.7°C 27.4°F-2.6°C 37% 6.1 mph W9.8 kmh W 6.3 mph10.1 kmh 29.94 in1013.9 mb - 0.00 in0.0 mm 0.00 in0.0 mm
03:30 PM 52.4°F11.3°C 26.9°F-2.8°C 37% 5.9 mph WNW9.5 kmh WNW 8.0 mph12.9 kmh 29.94 in1013.9 mb - 0.00 in0.0 mm 0.00 in0.0 mm
03:40 PM 51.4°F10.8°C 26.6°F-3.0°C 38% 4.8 mph NNW7.7 kmh NNW 5.8 mph9.3 kmh 29.94 in1013.9 mb - 0.00 in0.0 mm 0.00 in0.0 mm
03:50 PM 52.3°F11.3°C 26.8°F-2.9°C 37% 4.6 mph WNW7.4 kmh WNW 8.3 mph13.4 kmh 29.94 in1013.9 mb - 0.00 in0.0 mm 0.00 in0.0 mm
04:00 PM 52.3°F11.3°C 26.8°F-2.9°C 37% 4.6 mph W7.4 kmh W 5.8 mph9.3 kmh 29.94 in1013.9 mb - 0.00 in0.0 mm 0.00 in0.0 mm
04:10 PM 50.1°F10.1°C 24.8°F-4.0°C 37% 2.9 mph WNW4.7 kmh WNW 4.9 mph7.9 kmh 29.94 in1013.9 mb - 0.00 in0.0 mm 0.00 in0.0 mm
04:20 PM 48.8°F9.3°C 24.3°F-4.3°C 38% 2.5 mph W4.0 kmh W 3.1 mph5.0 kmh 29.91 in1012.9 mb - 0.00 in0.0 mm 0.00 in0.0 mm
04:30 PM 48.7°F9.3°C 24.2°F-4.3°C 38% 3.0 mph NW4.8 kmh NW 5.8 mph9.3 kmh 29.91 in1012.9 mb - 0.00 in0.0 mm 0.00 in0.0 mm
04:40 PM 51.1°F10.6°C 26.3°F-3.2°C 38% 4.4 mph WNW7.1 kmh WNW 8.3 mph13.4 kmh 29.91 in1012.9 mb - 0.00 in0.0 mm 0.00 in0.0 mm
04:50 PM 51.8°F11.0°C 26.3°F-3.2°C 37% 7.7 mph WSW12.4 kmh WSW 12.3 mph19.8 kmh 29.91 in1012.9 mb - 0.00 in0.0 mm 0.00 in0.0 mm
05:00 PM 51.8°F11.0°C 26.3°F-3.2°C 37% 4.0 mph W6.4 kmh W 8.3 mph13.4 kmh 29.91 in1012.9 mb - 0.00 in0.0 mm 0.00 in0.0 mm
05:10 PM 50.4°F10.2°C 25.7°F-3.5°C 38% 2.7 mph W4.3 kmh W 8.3 mph13.4 kmh 29.91 in1012.9 mb - 0.00 in0.0 mm 0.00 in0.0 mm
05:20 PM 50.0°F10.0°C 24.7°F-4.1°C 37% 4.8 mph W7.7 kmh W 6.3 mph10.1 kmh 29.91 in1012.9 mb - 0.00 in0.0 mm 0.00 in0.0 mm
05:30 PM 49.9°F9.9°C 25.2°F-3.8°C 38% 6.3 mph NW10.1 kmh NW 8.0 mph12.9 kmh 29.91 in1012.9 mb - 0.00 in0.0 mm 0.00 in0.0 mm
05:40 PM 49.0°F9.4°C 24.5°F-4.2°C 38% 5.4 mph NW8.7 kmh NW 8.7 mph14.0 kmh 29.91 in1012.9 mb - 0.00 in0.0 mm 0.00 in0.0 mm
05:50 PM 48.6°F9.2°C 24.1°F-4.4°C 38% 5.6 mph NNW9.0 kmh NNW 8.3 mph13.4 kmh 29.91 in1012.9 mb - 0.00 in0.0 mm 0.00 in0.0 mm
06:00 PM 48.4°F9.1°C 23.9°F-4.5°C 38% 4.6 mph N7.4 kmh N 6.3 mph10.1 kmh 29.92 in1013.2 mb - 0.00 in0.0 mm 0.00 in0.0 mm
06:10 PM 48.1°F8.9°C 23.6°F-4.7°C 38% 4.7 mph N7.6 kmh N 6.3 mph10.1 kmh 29.94 in1013.9 mb - 0.00 in0.0 mm 0.00 in0.0 mm
06:20 PM 47.8°F8.8°C 24.0°F-4.4°C 39% 3.4 mph NW5.5 kmh NW 8.0 mph12.9 kmh 29.94 in1013.9 mb - 0.00 in0.0 mm 0.00 in0.0 mm
06:30 PM 47.8°F8.8°C 24.0°F-4.4°C 39% 5.4 mph NW8.7 kmh NW 7.6 mph12.2 kmh 29.93 in1013.5 mb - 0.00 in0.0 mm 0.00 in0.0 mm
06:40 PM 47.7°F8.7°C 23.9°F-4.5°C 39% 4.1 mph NW6.6 kmh NW 8.0 mph12.9 kmh 29.91 in1012.9 mb - 0.00 in0.0 mm 0.00 in0.0 mm
06:50 PM 47.3°F8.5°C 23.6°F-4.7°C 39% 3.8 mph N6.1 kmh N 5.8 mph9.3 kmh 29.91 in1012.9 mb - 0.00 in0.0 mm 0.00 in0.0 mm
07:00 PM 46.9°F8.3°C 23.2°F-4.9°C 39% 2.7 mph NW4.3 kmh NW 4.0 mph6.4 kmh 29.91 in1012.9 mb - 0.00 in0.0 mm 0.00 in0.0 mm
07:10 PM 46.6°F8.1°C 22.9°F-5.1°C 39% 3.1 mph NNW5.0 kmh NNW 4.0 mph6.4 kmh 29.91 in1012.9 mb - 0.00 in0.0 mm 0.00 in0.0 mm
07:20 PM 46.4°F8.0°C 22.8°F-5.1°C 39% 4.7 mph NW7.6 kmh NW 5.4 mph8.7 kmh 29.91 in1012.9 mb - 0.00 in0.0 mm 0.00 in0.0 mm
07:30 PM 46.2°F7.9°C 23.2°F-4.9°C 40% 4.5 mph NW7.2 kmh NW 5.8 mph9.3 kmh 29.91 in1012.9 mb - 0.00 in0.0 mm 0.00 in0.0 mm
07:40 PM 46.0°F7.8°C 23.0°F-5.0°C 40% 4.3 mph WNW6.9 kmh WNW 5.4 mph8.7 kmh 29.91 in1012.9 mb - 0.00 in0.0 mm 0.00 in0.0 mm
07:50 PM 45.8°F7.7°C 22.8°F-5.1°C 40% 3.5 mph N5.6 kmh N 3.6 mph5.8 kmh 29.91 in1012.9 mb - 0.00 in0.0 mm 0.00 in0.0 mm
08:00 PM 45.5°F7.5°C 23.7°F-4.6°C 42% 2.7 mph NW4.3 kmh NW 3.6 mph5.8 kmh 29.91 in1012.9 mb - 0.00 in0.0 mm 0.00 in0.0 mm
08:10 PM 45.3°F7.4°C 23.5°F-4.7°C 42% 2.8 mph NW4.5 kmh NW 3.6 mph5.8 kmh 29.91 in1012.9 mb - 0.00 in0.0 mm 0.00 in0.0 mm
08:20 PM 45.3°F7.4°C 24.1°F-4.4°C 43% 3.6 mph NW5.8 kmh NW 4.9 mph7.9 kmh 29.94 in1013.9 mb - 0.00 in0.0 mm 0.00 in0.0 mm
08:30 PM 45.1°F7.3°C 23.9°F-4.5°C 43% 2.9 mph NW4.7 kmh NW 4.9 mph7.9 kmh 29.94 in1013.9 mb - 0.00 in0.0 mm 0.00 in0.0 mm
08:40 PM 45.1°F7.3°C 23.9°F-4.5°C 43% 3.7 mph NNW6.0 kmh NNW 5.8 mph9.3 kmh 29.94 in1013.9 mb - 0.00 in0.0 mm 0.00 in0.0 mm
08:50 PM 45.0°F7.2°C 23.8°F-4.6°C 43% 2.9 mph N4.7 kmh N 3.6 mph5.8 kmh 29.94 in1013.9 mb - 0.00 in0.0 mm 0.00 in0.0 mm
09:00 PM 45.0°F7.2°C 24.3°F-4.3°C 44% 3.8 mph NW6.1 kmh NW 5.4 mph8.7 kmh 29.94 in1013.9 mb - 0.00 in0.0 mm 0.00 in0.0 mm
09:10 PM 44.8°F7.1°C 24.7°F-4.1°C 45% 4.5 mph NNW7.2 kmh NNW 5.8 mph9.3 kmh 29.94 in1013.9 mb - 0.00 in0.0 mm 0.00 in0.0 mm
09:20 PM 44.8°F7.1°C 25.2°F-3.8°C 46% 3.9 mph NW6.3 kmh NW 6.3 mph10.1 kmh 29.94 in1013.9 mb - 0.00 in0.0 mm 0.00 in0.0 mm
09:30 PM 44.8°F7.1°C 26.3°F-3.2°C 48% 6.0 mph NW9.7 kmh NW 5.8 mph9.3 kmh 29.94 in1013.9 mb - 0.00 in0.0 mm 0.00 in0.0 mm
09:40 PM 44.6°F7.0°C 26.6°F-3.0°C 49% 5.1 mph NNW8.2 kmh NNW 8.7 mph14.0 kmh 29.91 in1012.9 mb - 0.00 in0.0 mm 0.00 in0.0 mm
09:50 PM 44.5°F6.9°C 27.0°F-2.8°C 50% 5.2 mph N8.4 kmh N 6.3 mph10.1 kmh 29.91 in1012.9 mb - 0.00 in0.0 mm 0.00 in0.0 mm
10:00 PM 44.4°F6.9°C 26.9°F-2.8°C 50% 4.9 mph NNW7.9 kmh NNW 8.7 mph14.0 kmh 29.91 in1012.9 mb - 0.00 in0.0 mm 0.00 in0.0 mm
10:10 PM 44.2°F6.8°C 26.8°F-2.9°C 50% 5.1 mph NW8.2 kmh NW 7.6 mph12.2 kmh 29.91 in1012.9 mb - 0.00 in0.0 mm 0.00 in0.0 mm
10:20 PM 44.2°F6.8°C 26.8°F-2.9°C 50% 4.6 mph NNW7.4 kmh NNW 8.0 mph12.9 kmh 29.91 in1012.9 mb - 0.00 in0.0 mm 0.00 in0.0 mm
10:30 PM 44.2°F6.8°C 27.2°F-2.7°C 51% 5.0 mph NNW8.0 kmh NNW 6.3 mph10.1 kmh 29.91 in1012.9 mb - 0.00 in0.0 mm 0.00 in0.0 mm
10:40 PM 44.2°F6.8°C 27.2°F-2.7°C 51% 7.2 mph NNW11.6 kmh NNW 7.6 mph12.2 kmh 29.91 in1012.9 mb - 0.00 in0.0 mm 0.00 in0.0 mm
10:50 PM 44.2°F6.8°C 27.2°F-2.7°C 51% 6.3 mph N10.1 kmh N 7.6 mph12.2 kmh 29.91 in1012.9 mb - 0.00 in0.0 mm 0.00 in0.0 mm
11:00 PM 44.2°F6.8°C 27.2°F-2.7°C 51% 6.6 mph NW10.6 kmh NW 5.8 mph9.3 kmh 29.91 in1012.9 mb - 0.00 in0.0 mm 0.00 in0.0 mm
11:10 PM 44.1°F6.7°C 27.1°F-2.7°C 51% 4.5 mph NW7.2 kmh NW 8.0 mph12.9 kmh 29.91 in1012.9 mb - 0.00 in0.0 mm 0.00 in0.0 mm
11:20 PM 44.1°F6.7°C 27.5°F-2.5°C 52% 3.5 mph NW5.6 kmh NW 4.0 mph6.4 kmh 29.91 in1012.9 mb - 0.00 in0.0 mm 0.00 in0.0 mm
11:30 PM 44.1°F6.7°C 27.5°F-2.5°C 52% 2.7 mph NNW4.3 kmh NNW 3.6 mph5.8 kmh 29.91 in1012.9 mb - 0.00 in0.0 mm 0.00 in0.0 mm
11:40 PM 43.9°F6.6°C 27.4°F-2.6°C 52% 2.4 mph NW3.9 kmh NW 4.0 mph6.4 kmh 29.91 in1012.9 mb - 0.00 in0.0 mm 0.00 in0.0 mm
11:50 PM 43.7°F6.5°C 27.2°F-2.7°C 52% Calm Calm -- 29.91 in1012.9 mb - 0.00 in0.0 mm 0.00 in0.0 mm